createdAt,value
2022-12-26T00:00:36.167Z,62.70
2022-12-26T00:03:03.117Z,62.60
2022-12-26T00:05:36.167Z,62.70
2022-12-26T00:08:03.562Z,62.70
2022-12-26T00:10:30.365Z,62.60
2022-12-26T00:13:40.071Z,62.60
2022-12-26T00:15:43.962Z,62.70
2022-12-26T00:18:10.769Z,62.60
2022-12-26T00:20:37.539Z,62.60
2022-12-26T00:23:04.336Z,62.50
2022-12-26T00:25:33.102Z,62.60
2022-12-26T00:27:59.938Z,62.50
2022-12-26T00:32:53.880Z,62.50
2022-12-26T00:35:20.664Z,62.70
2022-12-26T00:37:47.424Z,62.50
2022-12-26T00:40:14.150Z,62.50
2022-12-26T00:42:41.066Z,62.50
2022-12-26T00:45:08.308Z,62.50
2022-12-26T00:47:35.077Z,62.50
2022-12-26T00:50:13.864Z,62.50
2022-12-26T00:52:42.714Z,62.40
2022-12-26T00:57:36.787Z,62.50
2022-12-26T01:00:05.114Z,62.50
2022-12-26T01:02:37.844Z,62.50
2022-12-26T01:05:09.016Z,62.40
2022-12-26T01:10:26.469Z,62.40
2022-12-26T01:22:43.894Z,62.40
2022-12-26T01:25:11.986Z,62.40
2022-12-26T01:27:38.855Z,62.30
2022-12-26T01:30:06.493Z,62.30
2022-12-26T01:37:27.769Z,62.20
2022-12-26T01:39:54.598Z,62.20
2022-12-26T01:42:24.650Z,62.10
2022-12-26T01:45:04.271Z,62.10
2022-12-26T01:47:38.763Z,62.10
2022-12-26T01:50:10.022Z,62.10
2022-12-26T01:52:43.449Z,62.10
2022-12-26T01:55:13.224Z,62.10
2022-12-26T01:57:47.666Z,62.00
2022-12-26T02:00:15.515Z,62.10
2022-12-26T02:03:02.557Z,61.90
2022-12-26T02:05:36.231Z,62.00
2022-12-26T02:08:14.453Z,62.00
2022-12-26T02:10:49.649Z,62.00
2022-12-26T02:13:19.597Z,62.00
2022-12-26T02:15:47.354Z,61.90
2022-12-26T02:18:14.215Z,61.90
2022-12-26T02:20:51.190Z,61.90
2022-12-26T02:23:53.111Z,61.90
2022-12-26T02:26:55.269Z,61.90
2022-12-26T02:29:55.532Z,61.90
2022-12-26T02:32:47.815Z,61.80
2022-12-26T02:35:25.795Z,61.80
2022-12-26T02:38:15.329Z,61.80
2022-12-26T02:40:46.438Z,61.80
2022-12-26T02:43:44.660Z,61.80
2022-12-26T02:46:40.611Z,61.80
2022-12-26T02:50:00.853Z,61.80
2022-12-26T02:52:59.299Z,61.80
2022-12-26T02:55:47.026Z,61.80
2022-12-26T02:58:43.731Z,61.80
2022-12-26T03:01:40.631Z,61.80
2022-12-26T03:04:31.943Z,61.60
2022-12-26T03:07:20.208Z,61.80
2022-12-26T03:10:07.061Z,61.80
2022-12-26T03:13:02.107Z,61.70
2022-12-26T03:15:51.683Z,61.80
2022-12-26T03:18:20.668Z,61.70
2022-12-26T03:21:09.138Z,61.70
2022-12-26T03:23:37.940Z,61.70
2022-12-26T03:26:30.899Z,61.70
2022-12-26T03:29:19.189Z,61.70
2022-12-26T03:31:46.377Z,61.70
2022-12-26T03:36:59.702Z,61.70
2022-12-26T03:40:14.036Z,61.70
2022-12-26T03:43:05.923Z,61.70
2022-12-26T03:46:17.542Z,61.70
2022-12-26T03:49:18.857Z,61.70
2022-12-26T03:52:26.107Z,61.70
2022-12-26T03:55:37.513Z,61.70
2022-12-26T03:58:37.641Z,61.70
2022-12-26T04:01:28.639Z,61.70
2022-12-26T04:04:18.198Z,61.70
2022-12-26T04:07:19.396Z,61.60
2022-12-26T04:10:19.193Z,61.60
2022-12-26T04:13:07.592Z,61.70
2022-12-26T04:16:06.373Z,61.60
2022-12-26T04:19:04.413Z,62.40
2022-12-26T04:22:01.395Z,61.60
2022-12-26T04:24:56.055Z,61.60
2022-12-26T04:27:46.130Z,61.60
2022-12-26T04:30:31.843Z,61.60
2022-12-26T04:33:43.325Z,61.60
2022-12-26T04:36:55.677Z,61.60
2022-12-26T04:39:45.817Z,61.60
2022-12-26T04:42:33.112Z,61.60
2022-12-26T04:45:00.545Z,61.80
2022-12-26T04:47:29.622Z,61.60
2022-12-26T04:50:11.804Z,61.60
2022-12-26T04:53:00.625Z,61.80
2022-12-26T04:55:32.628Z,61.60
2022-12-26T04:57:59.821Z,61.60
2022-12-26T05:00:28.211Z,61.60
2022-12-26T05:03:18.608Z,61.60
2022-12-26T05:06:08.424Z,64.10
2022-12-26T05:08:59.998Z,61.60
2022-12-26T05:11:27.772Z,65.20
2022-12-26T05:13:56.268Z,61.60
2022-12-26T05:16:43.085Z,61.60
2022-12-26T05:19:31.429Z,61.60
2022-12-26T05:22:17.990Z,61.60
2022-12-26T05:25:04.639Z,64.00
2022-12-26T05:27:56.480Z,61.60
2022-12-26T05:30:24.303Z,61.60
2022-12-26T05:33:09.472Z,61.60
2022-12-26T05:35:36.405Z,61.60
2022-12-26T05:38:03.873Z,61.60
2022-12-26T05:40:30.928Z,61.60
2022-12-26T05:45:25.128Z,61.50
2022-12-26T05:48:01.366Z,61.60
2022-12-26T05:50:28.662Z,61.50
2022-12-26T05:52:59.185Z,61.50
2022-12-26T05:55:31.761Z,61.60
2022-12-26T05:58:00.651Z,61.50
2022-12-26T06:00:29.924Z,61.60
2022-12-26T06:02:58.749Z,61.50
2022-12-26T06:05:25.946Z,61.50
2022-12-26T06:07:52.646Z,61.50
2022-12-26T06:10:21.727Z,61.50
2022-12-26T06:12:48.652Z,61.50
2022-12-26T06:15:16.257Z,61.50
2022-12-26T06:20:10.714Z,61.40
2022-12-26T06:22:38.306Z,61.40
2022-12-26T06:25:05.544Z,61.40
2022-12-26T06:27:33.408Z,61.30
2022-12-26T06:30:00.262Z,61.40
2022-12-26T06:32:28.160Z,61.40
2022-12-26T06:34:54.920Z,61.40
2022-12-26T06:37:21.647Z,61.40
2022-12-26T06:39:49.454Z,61.30
2022-12-26T06:42:17.310Z,61.30
2022-12-26T06:44:44.198Z,61.30
2022-12-26T06:47:13.140Z,61.30
2022-12-26T06:49:39.893Z,61.30
2022-12-26T06:52:07.326Z,61.30
2022-12-26T06:54:35.230Z,61.50
2022-12-26T06:57:02.017Z,61.30
2022-12-26T06:59:28.964Z,61.30
2022-12-26T07:01:55.892Z,61.30
2022-12-26T07:04:26.015Z,61.30
2022-12-26T07:06:52.825Z,61.30
2022-12-26T07:11:49.435Z,61.30
2022-12-26T07:14:17.406Z,61.20
2022-12-26T07:16:45.578Z,61.20
2022-12-26T07:19:14.210Z,61.20
2022-12-26T07:21:41.645Z,61.20
2022-12-26T07:24:17.554Z,61.20
2022-12-26T07:26:45.955Z,61.20
2022-12-26T07:29:13.585Z,61.30
2022-12-26T07:31:41.307Z,61.30
2022-12-26T07:36:37.646Z,61.60
2022-12-26T07:41:50.181Z,61.50
2022-12-26T08:04:21.784Z,61.60
2022-12-26T09:01:25.978Z,63.40
2022-12-26T09:33:07.857Z,62.00
2022-12-26T09:41:25.846Z,61.60
2022-12-26T10:02:26.339Z,60.50
2022-12-26T10:15:53.106Z,60.00
2022-12-26T10:18:39.099Z,59.90
2022-12-26T10:27:13.947Z,59.60
2022-12-26T10:29:45.508Z,59.50
2022-12-26T10:32:27.734Z,59.50
2022-12-26T10:37:41.232Z,59.30
2022-12-26T10:40:47.591Z,59.20
2022-12-26T10:43:34.120Z,59.10
2022-12-26T10:46:19.870Z,59.00
2022-12-26T10:53:52.041Z,58.90
2022-12-26T10:59:04.078Z,58.70
2022-12-26T11:01:47.362Z,58.60
2022-12-26T11:04:44.563Z,58.60
2022-12-26T11:07:12.138Z,58.50
2022-12-26T11:09:51.133Z,57.90
2022-12-26T11:18:28.180Z,58.10
2022-12-26T11:21:21.328Z,58.10
2022-12-26T11:23:52.590Z,58.00
2022-12-26T11:26:29.705Z,57.90
2022-12-26T11:34:18.562Z,57.70
2022-12-26T11:44:25.429Z,57.30
2022-12-26T11:50:10.236Z,57.10
2022-12-26T11:52:58.970Z,57.00
2022-12-26T11:55:39.251Z,57.00
2022-12-26T12:05:36.434Z,56.60
2022-12-26T12:11:07.317Z,56.50
2022-12-26T12:17:01.678Z,56.40
2022-12-26T12:25:50.750Z,56.10
2022-12-26T12:31:20.122Z,56.00
2022-12-26T12:34:02.123Z,56.00
2022-12-26T12:36:59.663Z,55.90
2022-12-26T12:44:59.064Z,55.70
2022-12-26T12:47:44.920Z,55.60
2022-12-26T12:50:45.960Z,55.60
2022-12-26T12:53:31.416Z,55.40
2022-12-26T13:12:11.607Z,55.00
2022-12-26T13:17:23.848Z,55.00
2022-12-26T13:30:38.515Z,54.90
2022-12-26T13:44:05.716Z,54.80
2022-12-26T13:46:40.577Z,54.70
2022-12-26T13:49:29.379Z,54.60
2022-12-26T13:52:22.574Z,54.60
2022-12-26T14:00:42.387Z,54.50
2022-12-26T14:06:30.048Z,54.60
2022-12-26T14:11:50.720Z,54.60
2022-12-26T14:14:57.585Z,54.60
2022-12-26T14:17:56.542Z,54.60
2022-12-26T14:23:16.076Z,54.50
2022-12-26T14:26:01.906Z,54.60
2022-12-26T14:28:59.918Z,54.60
2022-12-26T14:40:28.032Z,54.40
2022-12-26T14:45:52.230Z,54.30
2022-12-26T15:09:57.718Z,54.00
2022-12-26T15:18:13.684Z,53.90
2022-12-26T15:29:11.295Z,53.80
2022-12-26T15:34:31.590Z,53.90
2022-12-26T15:37:13.600Z,53.90
2022-12-26T15:40:01.859Z,53.90
2022-12-26T15:42:51.698Z,53.90
2022-12-26T15:50:58.639Z,53.90
2022-12-26T15:59:11.630Z,53.80
2022-12-26T16:01:45.471Z,53.80
2022-12-26T16:07:21.370Z,53.70
2022-12-26T16:09:53.186Z,53.60
2022-12-26T16:12:28.888Z,53.50
2022-12-26T16:15:17.620Z,53.50
2022-12-26T16:23:21.859Z,53.30
2022-12-26T16:25:53.842Z,53.30
2022-12-26T16:28:40.476Z,53.20
2022-12-26T16:33:42.434Z,53.20
2022-12-26T16:45:34.300Z,52.90
2022-12-26T17:01:05.944Z,52.80
2022-12-26T17:19:42.744Z,52.70
2022-12-26T17:27:39.325Z,52.40
2022-12-26T17:41:51.670Z,52.40
2022-12-26T17:44:53.904Z,52.40
2022-12-26T17:47:40.679Z,52.40
2022-12-26T18:28:37.147Z,52.20
2022-12-26T18:53:50.057Z,52.20
2022-12-26T18:56:21.645Z,52.10
2022-12-26T19:15:47.984Z,52.10
2022-12-26T19:28:56.082Z,52.10
2022-12-26T19:56:26.704Z,51.80
2022-12-26T19:59:19.654Z,51.80
2022-12-26T20:07:59.504Z,51.70
2022-12-26T20:13:31.744Z,51.60
2022-12-26T20:28:15.842Z,51.50
2022-12-26T20:36:26.974Z,51.40
2022-12-26T20:41:56.158Z,51.30
2022-12-26T20:52:53.907Z,51.30
2022-12-26T20:55:20.825Z,51.30
2022-12-26T21:01:59.937Z,51.30
2022-12-26T21:04:34.470Z,51.30
2022-12-26T21:11:59.276Z,51.20
2022-12-26T21:19:29.316Z,51.10
2022-12-26T21:21:56.623Z,51.20
2022-12-26T21:24:31.894Z,51.20
2022-12-26T21:34:40.838Z,51.20
2022-12-26T21:39:54.781Z,51.30
2022-12-26T21:42:21.534Z,51.30
2022-12-26T21:44:48.395Z,51.30
2022-12-26T21:47:15.183Z,51.30
2022-12-26T21:49:42.011Z,51.30
2022-12-26T21:52:10.257Z,51.30
2022-12-26T21:54:56.508Z,51.30
2022-12-26T21:57:23.495Z,51.30
2022-12-26T21:59:56.048Z,51.30
2022-12-26T22:02:43.494Z,51.20
2022-12-26T22:05:11.825Z,51.30
2022-12-26T22:10:06.893Z,51.30
2022-12-26T22:12:52.471Z,51.30
2022-12-26T22:15:38.085Z,51.40
2022-12-26T22:18:05.019Z,51.40
2022-12-26T22:22:59.194Z,51.30
2022-12-26T22:25:26.078Z,51.30
2022-12-26T22:27:52.865Z,51.40
2022-12-26T22:30:19.838Z,51.40
2022-12-26T22:32:46.662Z,51.40
2022-12-26T22:35:18.566Z,51.40
2022-12-26T22:37:45.774Z,51.40
2022-12-26T22:42:39.885Z,51.50
2022-12-26T22:45:07.322Z,51.40
2022-12-26T22:47:34.070Z,51.50
2022-12-26T22:50:00.875Z,51.50
2022-12-26T22:52:28.789Z,51.50
2022-12-26T22:54:55.539Z,51.50
2022-12-26T22:57:22.585Z,51.50
2022-12-26T23:02:36.285Z,51.60
2022-12-26T23:05:03.991Z,51.70
2022-12-26T23:07:31.085Z,51.70
2022-12-26T23:09:58.062Z,51.80
2022-12-26T23:12:43.866Z,51.80
2022-12-26T23:15:18.052Z,51.80
2022-12-26T23:18:15.531Z,51.90
2022-12-26T23:21:01.032Z,52.50
2022-12-26T23:23:28.189Z,52.00
2022-12-26T23:25:54.928Z,51.90
2022-12-26T23:28:40.096Z,51.90
2022-12-26T23:31:06.979Z,51.90
2022-12-26T23:33:34.782Z,51.90
2022-12-26T23:36:01.536Z,51.90
2022-12-26T23:40:55.600Z,51.90
2022-12-26T23:43:22.454Z,52.00
2022-12-26T23:45:49.286Z,52.00
2022-12-26T23:48:15.981Z,51.90
2022-12-26T23:50:43.828Z,51.90
2022-12-26T23:53:10.773Z,51.90
2022-12-26T23:55:41.514Z,51.90
2022-12-26T23:58:08.785Z,52.00
